Time;durP1;ratioP1;P1;durP2;ratioP2;P2;SDS_P1;SDS_P2;PMS_P1;PMS_P2;Temp;Humidity;BMP_temperature;BMP_pressure;BME280_temperature;BME280_humidity;BME280_pressure;Samples;Min_cycle;Max_cycle;Signal;HPM_P1;HPM_P2
2021/03/31 00:01:53;;;;;;;48.53;26.95;;;;;;;14.37;51.85;101341.56;5052060;27;96918;-82
2021/03/31 00:04:18;;;;;;;51.47;28.85;;;;;;;14.30;52.16;101341.81;5072403;27;98906;-85
2021/03/31 00:06:44;;;;;;;52.50;27.08;;;;;;;14.26;51.96;101341.06;5052631;27;101348;-84
2021/03/31 00:09:10;;;;;;;48.92;28.33;;;;;;;14.26;52.03;101333.13;5072316;27;97104;-85
2021/03/31 00:11:35;;;;;;;44.50;25.73;;;;;;;14.13;52.77;101329.16;5055795;27;97254;-85
2021/03/31 00:14:01;;;;;;;47.67;27.42;;;;;;;14.14;52.04;101337.03;5037663;27;101111;-85
2021/03/31 00:16:27;;;;;;;42.03;27.42;;;;;;;14.17;51.82;101325.50;5055553;27;101372;-85
2021/03/31 00:18:52;;;;;;;45.83;28.00;;;;;;;14.13;51.96;101332.66;5055372;27;96753;-82
2021/03/31 00:21:18;;;;;;;46.40;26.10;;;;;;;14.08;52.04;101334.59;5073886;27;97134;-85
2021/03/31 00:23:44;;;;;;;49.25;28.85;;;;;;;14.00;52.29;101331.34;5055518;27;97942;-82
2021/03/31 00:26:09;;;;;;;48.20;27.50;;;;;;;13.93;52.19;101329.78;5055195;27;98173;-85
2021/03/31 00:28:35;;;;;;;44.90;27.98;;;;;;;13.76;52.97;101328.56;5072968;27;96843;-85
2021/03/31 00:31:01;;;;;;;43.83;26.42;;;;;;;13.72;52.96;101334.84;5055272;27;96894;-84
2021/03/31 00:33:27;;;;;;;47.38;26.00;;;;;;;13.66;53.40;101327.09;5036042;27;101314;-85
2021/03/31 00:35:52;;;;;;;54.67;27.67;;;;;;;13.76;53.57;101327.72;5047648;27;101615;-81
2021/03/31 00:38:18;;;;;;;48.92;27.90;;;;;;;13.76;53.74;101325.06;5051143;27;96812;-85
2021/03/31 00:40:52;;;;;;;45.40;27.52;;;;;;;13.68;53.45;101319.16;5054591;27;98066;-84
2021/03/31 00:43:18;;;;;;;44.03;26.05;;;;;;;13.72;53.34;101318.16;5054208;27;98716;-85
2021/03/31 00:45:44;;;;;;;49.65;27.95;;;;;;;13.63;53.59;101316.66;5034835;27;101193;-84
2021/03/31 00:48:16;;;;;;;49.63;27.27;;;;;;;13.66;53.75;101315.69;5075518;27;97191;-85
2021/03/31 00:50:47;;;;;;;43.88;27.95;;;;;;;13.60;53.75;101311.47;5060056;27;96812;-84
2021/03/31 00:53:17;;;;;;;;;;;;;;;13.50;53.49;101318.81;5058236;27;101306;-83
2021/03/31 00:55:43;;;;;;;49.28;27.17;;;;;;;13.34;53.99;101313.13;5058243;27;101552;-85
2021/03/31 00:58:08;;;;;;;77.45;33.17;;;;;;;13.36;52.93;101303.41;5075578;27;97050;-84
2021/03/31 01:00:34;;;;;;;56.88;29.10;;;;;;;13.52;53.68;101303.78;5057782;27;97380;-85
2021/03/31 01:03:00;;;;;;;59.55;29.45;;;;;;;13.47;53.61;101305.72;5056988;27;99961;-85
2021/03/31 01:05:28;;;;;;;54.13;28.27;;;;;;;13.52;53.84;101308.19;5058205;27;101170;-85
2021/03/31 01:07:55;;;;;;;54.67;28.75;;;;;;;13.51;53.81;101301.22;5057670;27;96741;-82
2021/03/31 01:10:42;;;;;;;53.45;28.60;;;;;;;13.42;53.83;101294.44;5044706;27;96903;-85
2021/03/31 01:13:39;;;;;;;58.95;29.48;;;;;;;13.39;54.06;101305.09;5057028;27;100155;-85
2021/03/31 01:16:10;;;;;;;48.75;28.08;;;;;;;13.33;53.92;101300.84;5057754;27;101420;-85
2021/03/31 01:18:54;;;;;;;58.45;27.98;;;;;;;13.41;53.48;101292.72;5075583;27;96745;-85
2021/03/31 01:21:42;;;;;;;48.95;26.58;;;;;;;13.43;53.61;101295.31;5057883;27;96930;-85
2021/03/31 01:24:35;;;;;;;54.00;27.05;;;;;;;13.37;53.96;101288.44;5057668;27;102180;-85
2021/03/31 01:27:06;;;;;;;47.08;25.48;;;;;;;13.30;53.86;101294.81;5074842;27;98232;-85
2021/03/31 01:29:59;;;;;;;42.35;25.67;;;;;;;13.27;54.05;101289.63;5041243;27;97268;-85
2021/03/31 01:32:31;;;;;;;44.85;24.67;;;;;;;13.29;54.14;101293.06;5058193;27;97999;-85
2021/03/31 01:34:58;;;;;;;;;;;;;;;13.19;54.79;101291.59;5057966;27;101479;-83
2021/03/31 01:37:45;;;;;;;47.53;27.10;;;;;;;13.18;54.62;101281.94;5058457;27;101119;-84
2021/03/31 01:40:14;;;;;;;44.92;26.08;;;;;;;13.12;54.88;101286.50;5074960;27;97083;-86
2021/03/31 01:42:42;;;;;;;46.75;27.10;;;;;;;13.08;55.06;101284.84;5041229;27;96856;-86
2021/03/31 01:45:09;;;;;;;42.70;27.08;;;;;;;13.10;54.66;101279.56;5057226;27;99668;-85
2021/03/31 01:47:38;;;;;;;43.33;26.60;;;;;;;13.08;54.98;101279.59;5040936;27;101083;-85
2021/03/31 01:50:07;;;;;;;45.28;26.42;;;;;;;12.96;54.54;101279.94;5048365;27;97328;-85
2021/03/31 01:52:33;;;;;;;41.22;25.00;;;;;;;13.02;54.28;101279.75;5071275;27;97318;-86
2021/03/31 01:54:59;;;;;;;41.25;24.65;;;;;;;12.95;55.03;101283.50;5053397;27;101441;-85
2021/03/31 01:57:25;;;;;;;50.65;25.92;;;;;;;12.99;54.73;101285.13;5054077;27;100745;-84
2021/03/31 01:59:52;;;;;;;43.08;26.00;;;;;;;12.87;55.04;101277.56;5058402;27;96906;-86
2021/03/31 02:02:19;;;;;;;42.05;25.63;;;;;;;12.83;55.00;101282.06;5074469;27;97493;-86
2021/03/31 02:04:45;;;;;;;45.03;26.30;;;;;;;12.76;55.29;101275.22;5061785;27;97494;-85
2021/03/31 02:07:11;;;;;;;40.38;25.58;;;;;;;12.79;54.96;101275.16;5060596;27;100813;-85
2021/03/31 02:09:42;;;;;;;41.80;25.23;;;;;;;12.80;54.53;101268.09;5080191;27;96801;-85
2021/03/31 02:12:09;;;;;;;40.33;26.17;;;;;;;12.76;55.23;101269.97;5060910;27;97002;-89
2021/03/31 02:14:39;;;;;;;42.55;24.05;;;;;;;12.54;55.76;101269.72;5050673;27;101129;-86
2021/03/31 02:17:06;;;;;;;41.83;24.15;;;;;;;12.48;55.77;101269.88;5057767;27;97637;-86
2021/03/31 02:19:32;;;;;;;43.67;26.05;;;;;;;12.56;55.63;101269.66;5052391;27;97132;-86
2021/03/31 02:21:58;;;;;;;48.78;28.10;;;;;;;12.56;55.55;101275.78;5077652;27;97106;-81
2021/03/31 02:24:24;;;;;;;51.60;28.42;;;;;;;12.59;54.96;101275.69;5057828;27;100714;-85
2021/03/31 02:26:49;;;;;;;64.45;28.95;;;;;;;12.54;55.08;101272.34;5075847;27;98532;-88
2021/03/31 02:29:15;;;;;;;55.45;26.95;;;;;;;12.56;55.26;101278.41;5057197;27;96657;-87
2021/03/31 02:31:42;;;;;;;48.80;25.73;;;;;;;12.52;55.99;101270.66;5058524;27;96962;-88
2021/03/31 02:34:08;;;;;;;51.65;26.85;;;;;;;12.52;55.08;101274.16;5060030;27;100209;-87
2021/03/31 02:36:34;;;;;;;64.82;28.55;;;;;;;12.30;55.91;101270.34;5043646;27;98107;-88
2021/03/31 02:39:01;;;;;;;59.65;28.05;;;;;;;12.41;55.86;101273.56;5051009;27;96859;-86
2021/03/31 02:41:28;;;;;;;61.88;28.88;;;;;;;12.38;55.98;101263.97;5056924;27;97089;-88
2021/03/31 02:43:54;;;;;;;65.95;29.17;;;;;;;12.44;55.92;101260.31;5068943;27;97175;-87
2021/03/31 02:46:20;;;;;;;71.93;29.85;;;;;;;12.35;56.49;101258.78;5056549;27;101612;-87
2021/03/31 02:48:50;;;;;;;59.80;29.40;;;;;;;12.36;55.98;101260.53;5070197;27;97009;-87
2021/03/31 02:51:20;;;;;;;56.55;28.45;;;;;;;12.29;56.09;101248.44;5077222;27;97306;-88
2021/03/31 02:53:46;;;;;;;59.88;26.65;;;;;;;12.24;56.44;101266.09;5061078;27;101184;-87
2021/03/31 02:56:13;;;;;;;55.47;27.67;;;;;;;12.22;56.45;101265.31;5060807;27;98692;-88
2021/03/31 02:58:40;;;;;;;56.70;25.55;;;;;;;12.29;56.24;101264.22;5061616;27;96683;-87
2021/03/31 03:01:06;;;;;;;52.53;27.70;;;;;;;12.18;56.05;101256.59;5043056;27;97026;-85
2021/03/31 03:03:35;;;;;;;48.65;25.05;;;;;;;12.17;55.86;101257.50;5046860;27;100100;-86
2021/03/31 03:06:03;;;;;;;52.78;27.02;;;;;;;12.14;56.23;101249.69;5056085;27;101351;-87
2021/03/31 03:08:29;;;;;;;55.50;27.23;;;;;;;12.13;56.01;101258.50;5053989;27;96623;-87
2021/03/31 03:10:59;;;;;;;51.15;25.52;;;;;;;12.11;56.35;101251.53;5060025;27;96909;-87
2021/03/31 03:13:26;;;;;;;52.33;26.17;;;;;;;12.09;56.23;101250.72;5058145;27;101093;-87
2021/03/31 03:15:52;;;;;;;54.60;26.10;;;;;;;12.03;56.25;101250.88;5055961;27;101069;-86
2021/03/31 03:18:18;;;;;;;51.70;25.52;;;;;;;12.00;56.33;101249.19;5072152;27;96950;-87
2021/03/31 03:20:43;;;;;;;58.00;24.35;;;;;;;11.91;56.36;101244.16;5060103;27;96761;-84
2021/03/31 03:23:09;;;;;;;47.97;24.55;;;;;;;12.00;55.78;101246.53;5042620;27;101475;-87
2021/03/31 03:25:36;;;;;;;55.15;25.77;;;;;;;11.87;56.40;101240.75;5077838;27;97976;-87
2021/03/31 03:28:03;;;;;;;62.63;25.58;;;;;;;11.77;56.27;101233.94;5042532;27;96738;-87
2021/03/31 03:30:30;;;;;;;51.28;24.80;;;;;;;11.77;56.36;101242.69;5077621;27;96892;-87
2021/03/31 03:32:56;;;;;;;62.55;26.35;;;;;;;11.73;56.77;101243.66;5057007;27;101700;-84
2021/03/31 03:35:26;;;;;;;55.35;25.20;;;;;;;11.77;56.87;101247.06;5055940;27;99992;-87
2021/03/31 03:37:53;;;;;;;57.60;25.47;;;;;;;11.80;57.04;101254.91;5053271;27;97139;-86
2021/03/31 03:40:23;;;;;;;50.60;25.98;;;;;;;11.78;57.10;101239.16;5076153;27;97404;-87
2021/03/31 03:42:48;;;;;;;53.90;25.40;;;;;;;11.72;57.03;101241.94;5059209;27;101214;-87
2021/03/31 03:45:15;;;;;;;65.50;26.63;;;;;;;11.68;57.50;101242.03;5055761;27;98445;-86
2021/03/31 03:47:42;;;;;;;52.30;25.42;;;;;;;11.71;57.09;101236.72;5037644;27;96782;-87
2021/03/31 03:50:13;;;;;;;56.22;25.83;;;;;;;11.75;56.95;101238.34;5076854;27;96608;-86
2021/03/31 03:52:39;;;;;;;56.93;25.73;;;;;;;11.69;56.72;101242.03;5042815;27;101981;-87
2021/03/31 03:55:06;;;;;;;56.00;24.75;;;;;;;11.71;56.90;101234.06;5059408;27;100238;-87
2021/03/31 03:57:32;;;;;;;50.67;24.75;;;;;;;11.72;56.49;101238.44;5055432;27;97019;-87
2021/03/31 03:59:58;;;;;;;62.22;25.92;;;;;;;11.71;56.50;101240.19;5055868;27;96884;-84
2021/03/31 04:02:24;;;;;;;55.85;25.08;;;;;;;11.60;57.06;101230.84;5023584;27;101969;-86
2021/03/31 04:04:49;;;;;;;59.00;23.75;;;;;;;11.53;57.12;101238.00;5042438;27;101099;-87
2021/03/31 04:07:15;;;;;;;56.72;24.75;;;;;;;11.56;57.09;101233.53;5040994;27;97246;-86
2021/03/31 04:09:43;;;;;;;54.95;22.73;;;;;;;11.63;56.57;101236.88;5059635;27;96908;-87
2021/03/31 04:12:10;;;;;;;55.00;25.17;;;;;;;11.62;57.11;101240.44;5054454;27;100932;-87
2021/03/31 04:14:40;;;;;;;59.10;24.83;;;;;;;11.62;56.95;101239.56;5049724;27;101502;-87
2021/03/31 04:17:07;;;;;;;66.82;25.77;;;;;;;11.52;57.04;101239.78;5058839;27;96709;-87
2021/03/31 04:19:34;;;;;;;54.92;24.40;;;;;;;11.35;57.18;101236.69;5059178;27;97086;-86
2021/03/31 04:22:00;;;;;;;61.28;24.00;;;;;;;11.47;57.28;101240.78;5057617;27;98135;-83
2021/03/31 04:24:26;;;;;;;65.40;24.52;;;;;;;11.48;57.62;101242.50;5075840;27;98601;-86
2021/03/31 04:26:52;;;;;;;58.38;24.98;;;;;;;11.48;57.24;101240.75;5076160;27;96754;-87
2021/03/31 04:29:18;;;;;;;78.35;25.52;;;;;;;11.33;57.36;101238.47;5057991;27;97340;-87
2021/03/31 04:31:44;;;;;;;50.92;23.80;;;;;;;11.35;57.56;101239.31;5075499;27;97581;-85
2021/03/31 04:34:10;;;;;;;62.85;25.55;;;;;;;11.34;57.25;101237.56;5046699;27;99568;-87
2021/03/31 04:36:35;;;;;;;54.30;25.42;;;;;;;11.44;57.18;101231.22;5036457;27;96925;-86
2021/03/31 04:39:04;;;;;;;48.85;26.13;;;;;;;11.35;57.17;101233.19;5049108;27;97264;-84
2021/03/31 04:41:29;;;;;;;67.55;24.85;;;;;;;11.40;56.97;101239.19;5054736;27;101315;-87
2021/03/31 04:43:55;;;;;;;72.20;25.75;;;;;;;11.43;57.12;101239.13;5033056;27;101119;-87
2021/03/31 04:46:21;;;;;;;68.80;26.15;;;;;;;11.50;57.11;101238.94;5054466;27;96887;-87
2021/03/31 04:48:46;;;;;;;68.47;25.52;;;;;;;11.37;57.20;101234.84;5033186;27;96885;-86
2021/03/31 04:51:12;;;;;;;63.22;26.60;;;;;;;11.33;57.17;101231.44;5057538;27;98058;-86
2021/03/31 04:53:37;;;;;;;61.28;26.40;;;;;;;11.40;57.34;101239.19;5046876;27;99768;-86
2021/03/31 04:56:03;;;;;;;63.40;27.10;;;;;;;11.36;57.02;101238.41;5022133;27;97822;-86
2021/03/31 04:58:29;;;;;;;69.90;27.98;;;;;;;11.42;56.97;101235.63;5049999;27;96969;-86
2021/03/31 05:00:55;;;;;;;61.05;26.90;;;;;;;11.35;56.84;101239.31;5074792;27;97470;-86
2021/03/31 05:03:21;;;;;;;68.82;26.45;;;;;;;11.44;56.94;101243.50;5074922;27;101102;-86
2021/03/31 05:05:46;;;;;;;68.10;26.45;;;;;;;11.61;56.46;101235.22;5039890;27;96801;-86
2021/03/31 05:08:12;;;;;;;71.00;29.48;;;;;;;11.79;56.42;101233.00;5037424;27;96934;-87
2021/03/31 05:10:38;;;;;;;67.47;26.77;;;;;;;11.82;56.33;101232.06;5073261;27;97937;-86
2021/03/31 05:13:04;;;;;;;81.75;27.23;;;;;;;11.84;56.37;101232.88;5028381;27;101100;-86
2021/03/31 05:15:30;;;;;;;83.18;28.85;;;;;;;12.06;56.05;101229.75;5039898;27;97094;-86
2021/03/31 05:17:55;;;;;;;62.85;25.55;;;;;;;12.26;55.41;101232.72;5066428;27;96878;-87
2021/03/31 05:20:21;;;;;;;64.82;25.65;;;;;;;12.44;54.84;101229.56;5054053;27;97471;-86
2021/03/31 05:22:47;;;;;;;78.18;26.08;;;;;;;12.55;54.98;101228.44;5066287;27;99960;-86
2021/03/31 05:25:13;;;;;;;66.75;26.20;;;;;;;12.77;54.33;101229.56;5074847;27;97561;-87
2021/03/31 05:27:38;;;;;;;81.35;26.65;;;;;;;12.99;54.07;101226.28;5038126;27;97338;-86
2021/03/31 05:30:09;;;;;;;75.28;25.88;;;;;;;13.16;53.42;101236.34;5035366;27;101269;-86
2021/03/31 05:32:35;;;;;;;69.28;25.88;;;;;;;13.33;53.28;101231.44;5048950;27;100630;-86
2021/03/31 05:35:00;;;;;;;72.18;25.83;;;;;;;13.62;52.93;101237.56;5057195;27;96794;-84
2021/03/31 05:37:27;;;;;;;67.20;25.60;;;;;;;13.80;52.57;101229.06;5075520;27;96873;-83
2021/03/31 05:39:52;;;;;;;76.57;26.58;;;;;;;13.96;51.85;101229.38;5042635;27;100845;-84
2021/03/31 05:42:18;;;;;;;69.40;26.58;;;;;;;14.23;51.31;101232.88;5054823;27;100535;-85
2021/03/31 05:44:44;;;;;;;65.57;25.13;;;;;;;14.42;51.08;101228.66;5061420;27;96803;-83
2021/03/31 05:47:17;;;;;;;68.40;25.95;;;;;;;14.60;50.55;101231.59;5056739;27;96760;-84
2021/03/31 05:49:43;;;;;;;61.25;25.98;;;;;;;14.64;50.23;101233.22;5081330;27;97050;-85
2021/03/31 05:52:09;;;;;;;61.92;25.15;;;;;;;15.13;50.40;101240.19;5044546;27;101387;-84
2021/03/31 05:54:35;;;;;;;70.97;27.02;;;;;;;15.51;49.64;101239.59;5061730;27;97091;-84
2021/03/31 05:57:01;;;;;;;68.13;26.88;;;;;;;16.05;48.57;101236.47;5096909;27;97021;-81
2021/03/31 05:59:27;;;;;;;74.80;27.08;;;;;;;16.44;47.50;101233.06;5056764;27;100212;-85
2021/03/31 06:01:52;;;;;;;71.10;28.88;;;;;;;16.92;46.43;101229.13;5053925;27;101387;-83
2021/03/31 06:04:18;;;;;;;66.03;27.30;;;;;;;17.46;44.83;101234.59;5060342;27;97130;-84
2021/03/31 06:06:44;;;;;;;69.05;29.08;;;;;;;18.55;42.78;101231.75;5061022;27;96826;-82
2021/03/31 06:09:10;;;;;;;70.85;29.75;;;;;;;20.44;40.15;101245.06;5059607;27;101634;-86
2021/03/31 06:11:49;;;;;;;79.03;32.05;;;;;;;22.43;36.20;101231.31;5057196;27;101292;-86
2021/03/31 06:14:28;;;;;;;63.20;27.95;;;;;;;23.94;34.21;101231.09;5045512;27;97347;-86
2021/03/31 06:17:09;;;;;;;42.95;23.92;;;;;;;24.77;32.53;101232.72;5062076;27;97149;-85
2021/03/31 06:19:35;;;;;;;;;;;;;;;26.15;30.97;101225.88;5097397;27;98272;-86
2021/03/31 06:22:14;;;;;;;60.65;22.67;;;;;;;26.53;30.59;101224.44;5057141;27;97997;-82
2021/03/31 06:24:48;;;;;;;46.00;21.73;;;;;;;25.49;31.46;101226.91;5049101;27;96998;-86
2021/03/31 06:27:14;;;;;;;39.38;20.95;;;;;;;25.85;30.41;101226.66;5078253;27;97024;-83
2021/03/31 06:30:02;;;;;;;47.50;22.23;;;;;;;25.82;30.51;101224.22;5059028;27;97810;-86
2021/03/31 06:32:39;;;;;;;29.67;19.38;;;;;;;26.56;29.32;101213.44;5043377;27;100725;-87
2021/03/31 06:35:06;;;;;;;36.42;20.23;;;;;;;26.56;28.93;101214.28;5043038;27;96811;-87
2021/03/31 06:37:37;;;;;;;36.88;20.95;;;;;;;26.91;28.42;101206.75;5044739;27;97005;-87
2021/03/31 06:40:06;;;;;;;31.60;20.88;;;;;;;27.23;28.18;101206.59;5058884;27;98210;-81
2021/03/31 06:42:43;;;;;;;36.47;20.63;;;;;;;27.52;28.02;101206.66;5040880;27;100913;-87
2021/03/31 06:45:18;;;;;;;34.70;20.88;;;;;;;28.14;27.12;101204.50;5074901;27;97117;-87
2021/03/31 06:47:53;;;;;;;39.20;22.08;;;;;;;29.11;26.50;101199.59;5044158;27;97018;-84
2021/03/31 06:50:19;;;;;;;39.20;21.35;;;;;;;29.78;25.43;101196.56;5073636;27;97764;-86
2021/03/31 06:52:55;;;;;;;37.38;22.20;;;;;;;30.40;25.67;101197.41;5040567;27;100234;-86
2021/03/31 06:55:22;;;;;;;41.20;21.88;;;;;;;30.35;24.85;101198.88;5036913;27;96804;-87
2021/03/31 06:58:02;;;;;;;45.75;21.77;;;;;;;30.65;23.93;101195.66;5056438;27;96965;-86
2021/03/31 07:00:28;;;;;;;57.05;30.83;;;;;;;31.44;24.08;101193.56;5057052;27;101961;-88
2021/03/31 07:02:54;;;;;;;39.55;22.63;;;;;;;31.74;23.22;101196.66;5074189;27;99658;-88
2021/03/31 07:05:21;;;;;;;43.95;26.17;;;;;;;30.89;23.53;101188.66;5040101;27;97020;-89
2021/03/31 07:07:47;;;;;;;38.08;24.80;;;;;;;30.81;23.94;101186.78;5041170;27;97096;-90
2021/03/31 07:10:18;;;;;;;52.53;31.08;;;;;;;31.17;23.46;101189.25;5073814;27;101122;-83
2021/03/31 07:12:47;;;;;;;39.92;21.70;;;;;;;32.58;22.13;101187.25;5051403;27;97356;-84
2021/03/31 07:15:21;;;;;;;41.78;22.70;;;;;;;32.95;21.48;101187.59;5074383;27;97022;-89
2021/03/31 07:17:55;;;;;;;38.95;22.83;;;;;;;33.13;21.44;101186.34;5035724;27;96813;-90
2021/03/31 07:20:23;;;;;;;37.63;22.33;;;;;;;33.42;20.75;101182.03;5045635;27;98442;-90
2021/03/31 07:22:48;;;;;;;34.72;23.30;;;;;;;34.60;20.92;101167.88;5054741;27;97360;-90
2021/03/31 07:25:17;;;;;;;34.90;23.00;;;;;;;35.50;20.56;101168.50;5061714;27;96900;-88
2021/03/31 07:27:44;;;;;;;44.10;23.90;;;;;;;35.35;20.85;101172.13;5077692;27;97848;-91
2021/03/31 07:30:13;;;;;;;37.53;22.48;;;;;;;35.17;20.33;101173.59;5054308;27;101337;-89
2021/03/31 07:32:59;;;;;;;31.30;21.85;;;;;;;36.83;19.34;101164.84;5050608;27;101785;-91
2021/03/31 07:35:27;;;;;;;31.50;21.25;;;;;;;37.17;19.59;101165.78;5054137;27;96667;-90
2021/03/31 07:37:56;;;;;;;30.95;21.40;;;;;;;36.95;18.55;101159.63;5049961;27;97145;-89
2021/03/31 07:40:22;;;;;;;31.58;21.17;;;;;;;36.49;19.05;101155.59;5044887;27;101475;-90
2021/03/31 07:42:58;;;;;;;37.03;21.42;;;;;;;37.51;18.72;101156.59;5047288;27;100699;-90
2021/03/31 07:45:26;;;;;;;30.52;21.00;;;;;;;38.47;18.34;101144.28;5066505;27;97929;-90
2021/03/31 07:47:52;;;;;;;36.40;21.75;;;;;;;38.76;17.66;101150.28;5048169;27;98618;-92
2021/03/31 07:50:18;;;;;;;30.38;20.70;;;;;;;38.44;17.61;101153.78;5062230;27;97727;-93
2021/03/31 07:52:58;;;;;;;30.52;19.73;;;;;;;39.13;16.93;101143.16;5062724;27;97403;-89
2021/03/31 07:55:46;;;;;;;30.70;20.67;;;;;;;38.90;16.71;101141.81;5022933;27;96878;-91
2021/03/31 07:58:28;;;;;;;25.58;20.85;;;;;;;38.63;16.61;101140.22;5036006;27;96884;-91
2021/03/31 08:01:03;;;;;;;24.08;20.00;;;;;;;38.80;16.84;101138.66;5066319;27;98532;-91
2021/03/31 08:03:31;;;;;;;26.77;20.83;;;;;;;39.88;16.38;101139.63;5041513;27;97557;-90
2021/03/31 08:06:03;;;;;;;39.05;22.42;;;;;;;40.73;16.14;101134.28;5042378;27;97031;-91
2021/03/31 08:08:28;;;;;;;29.17;19.92;;;;;;;40.71;16.16;101134.47;5056588;27;96815;-91
2021/03/31 08:10:55;;;;;;;31.73;20.30;;;;;;;41.27;15.92;101134.34;5039087;27;101779;-90
2021/03/31 08:13:32;;;;;;;32.10;22.08;;;;;;;41.27;15.52;101129.66;5041806;27;101452;-92
2021/03/31 08:16:00;;;;;;;25.77;21.20;;;;;;;40.37;15.10;101129.59;5053982;27;97120;-91
2021/03/31 08:18:27;;;;;;;32.47;22.52;;;;;;;39.68;15.53;101121.41;5051694;27;97216;-91
2021/03/31 08:20:54;;;;;;;29.88;21.58;;;;;;;39.93;15.88;101124.13;5073044;27;100938;-89
2021/03/31 08:23:47;;;;;;;35.45;22.42;;;;;;;40.94;15.86;101132.91;5041818;27;101389;-92
2021/03/31 08:26:32;;;;;;;32.47;22.27;;;;;;;42.09;14.86;101126.16;5047408;27;96995;-85
2021/03/31 08:29:00;;;;;;;30.17;20.77;;;;;;;42.21;15.04;101124.22;5066053;27;97115;-90
2021/03/31 08:31:28;;;;;;;32.60;22.88;;;;;;;41.88;14.91;101118.47;5044729;27;100080;-91
2021/03/31 08:33:53;;;;;;;29.98;22.63;;;;;;;42.24;14.81;101120.97;5066005;27;101116;-90
2021/03/31 08:36:19;;;;;;;28.77;21.25;;;;;;;42.75;14.37;101110.19;5053093;27;96769;-91
2021/03/31 08:38:52;;;;;;;29.20;22.35;;;;;;;42.96;14.46;101103.94;5037985;27;97118;-92
2021/03/31 08:41:20;;;;;;;23.17;20.73;;;;;;;42.95;14.77;101105.03;5053386;27;98081;-92
2021/03/31 08:43:46;;;;;;;27.55;22.90;;;;;;;41.94;14.83;101099.09;5041958;27;101853;-90
2021/03/31 08:46:13;;;;;;;31.23;22.80;;;;;;;41.89;14.67;101101.75;5043087;27;97089;-92
2021/03/31 08:48:42;;;;;;;24.67;18.92;;;;;;;41.18;15.12;101096.13;5096195;27;97052;-88
2021/03/31 08:51:09;;;;;;;24.20;21.67;;;;;;;41.66;14.83;101098.94;5056714;27;97475;-82
2021/03/31 08:53:35;;;;;;;24.83;20.08;;;;;;;43.10;14.47;101084.31;5050532;27;96975;-86
2021/03/31 08:56:02;;;;;;;25.50;20.10;;;;;;;43.04;14.84;101083.38;5069145;27;97145;-86
2021/03/31 08:58:28;;;;;;;30.13;21.50;;;;;;;41.90;14.40;101100.66;5046598;27;97361;-87
2021/03/31 09:00:53;;;;;;;24.55;20.08;;;;;;;42.70;15.35;101085.22;5048843;27;100866;-87
2021/03/31 09:03:20;;;;;;;23.48;18.52;;;;;;;43.33;15.80;101083.34;5065552;27;97444;-88
2021/03/31 09:06:01;;;;;;;30.13;21.63;;;;;;;42.99;14.88;101082.44;5048502;27;96859;-88
2021/03/31 09:08:27;;;;;;;28.23;22.23;;;;;;;42.33;14.84;101077.34;5066530;27;97289;-86
2021/03/31 09:10:59;;;;;;;29.73;21.45;;;;;;;42.11;15.00;101076.28;5066609;27;101551;-81
2021/03/31 09:13:35;;;;;;;28.70;21.45;;;;;;;41.40;14.94;101079.88;5063989;27;98165;-84
2021/03/31 09:16:06;;;;;;;27.38;23.23;;;;;;;40.12;15.97;101071.94;5052215;27;97342;-83
2021/03/31 09:18:32;;;;;;;27.40;19.40;;;;;;;39.00;17.53;101064.47;5073709;27;96778;-82
2021/03/31 09:20:57;;;;;;;24.70;22.08;;;;;;;36.86;17.92;101065.97;5064596;27;101216;-84
2021/03/31 09:23:25;;;;;;;26.60;21.83;;;;;;;34.46;19.43;101062.41;5053118;27;101431;-84
2021/03/31 09:25:55;;;;;;;25.00;21.33;;;;;;;33.67;19.94;101057.53;5043643;27;96895;-83
2021/03/31 09:28:21;;;;;;;25.58;20.42;;;;;;;33.93;20.86;101057.09;5080023;27;97134;-84
2021/03/31 09:30:51;;;;;;;35.83;23.77;;;;;;;33.70;21.42;101062.63;5045229;27;97529;-81
2021/03/31 09:33:25;;;;;;;;;;;;;;;32.97;24.52;101061.31;5055819;27;100801;-82
2021/03/31 09:35:51;;;;;;;31.15;22.40;;;;;;;33.01;22.05;101062.66;5046240;27;96729;-82
2021/03/31 09:38:25;;;;;;;31.25;19.23;;;;;;;32.65;22.92;101060.50;5056204;27;97111;-80
2021/03/31 09:41:04;;;;;;;27.67;21.42;;;;;;;31.74;22.47;101061.81;5020236;27;100854;-83
2021/03/31 09:43:30;;;;;;;27.13;22.40;;;;;;;31.60;22.54;101053.53;5029523;28;101304;-85
2021/03/31 09:45:56;;;;;;;27.13;21.40;;;;;;;31.08;22.80;101055.56;5032027;27;96871;-85
2021/03/31 09:48:23;;;;;;;27.58;21.63;;;;;;;30.73;22.86;101053.09;5029559;28;97166;-86
2021/03/31 09:50:49;;;;;;;25.90;21.23;;;;;;;30.72;22.95;101049.56;5015067;27;100501;-87
2021/03/31 09:53:15;;;;;;;27.08;21.33;;;;;;;30.54;22.89;101054.22;5039252;27;100985;-87
2021/03/31 09:55:41;;;;;;;22.08;14.80;;;;;;;30.47;25.11;101056.75;5056452;27;96697;-74
2021/03/31 09:58:06;;;;;;;19.67;14.00;;;;;;;30.32;25.33;101058.41;5014117;28;96945;-83
2021/03/31 10:00:40;;;;;;;31.85;21.50;;;;;;;29.58;23.65;101041.69;5030383;27;101344;-83
2021/03/31 10:03:06;;;;;;;31.40;23.38;;;;;;;29.41;24.28;101047.97;5030759;27;101163;-85
2021/03/31 10:05:33;;;;;;;34.67;21.02;;;;;;;29.40;24.90;101047.13;5040683;27;96857;-83
2021/03/31 10:08:00;;;;;;;36.85;22.92;;;;;;;29.09;24.38;101049.44;5042917;27;97337;-84
2021/03/31 10:10:46;;;;;;;28.88;20.15;;;;;;;28.71;24.49;101046.00;5036864;27;101114;-83
2021/03/31 10:13:13;;;;;;;25.30;18.90;;;;;;;28.86;25.55;101039.03;5024533;27;100838;-86
2021/03/31 10:15:41;;;;;;;25.17;19.20;;;;;;;28.58;24.50;101042.78;5037541;27;97118;-85
2021/03/31 10:18:11;;;;;;;20.80;15.55;;;;;;;28.19;24.62;101035.75;5041071;27;97953;-80
2021/03/31 10:20:45;;;;;;;24.08;17.40;;;;;;;28.12;24.66;101036.47;5040372;27;99111;-88
2021/03/31 10:23:30;;;;;;;23.58;18.52;;;;;;;27.99;25.07;101032.28;5025421;27;100992;-81
2021/03/31 10:26:18;;;;;;;29.15;19.52;;;;;;;27.75;25.74;101027.38;5026881;27;96922;-87
2021/03/31 10:28:44;;;;;;;28.17;20.50;;;;;;;27.45;25.80;101025.72;5042275;27;97090;-83
2021/03/31 10:31:37;;;;;;;27.05;20.13;;;;;;;27.46;26.72;101019.34;5057738;27;97551;-85
2021/03/31 10:34:03;;;;;;;30.58;18.92;;;;;;;27.37;25.93;101009.41;5031730;27;101050;-89
2021/03/31 10:37:02;;;;;;;24.05;18.17;;;;;;;27.31;25.75;101012.69;5032548;28;97048;-90
2021/03/31 10:50:33;;;;;;;31.40;17.42;;;;;;;26.52;26.38;100996.63;5056232;27;97355;-87
2021/03/31 10:53:00;;;;;;;31.55;18.38;;;;;;;26.50;27.10;101007.56;5055208;27;101317;-88
2021/03/31 10:55:26;;;;;;;24.23;17.23;;;;;;;26.38;26.61;100992.47;5033972;27;101107;-86
2021/03/31 10:57:52;;;;;;;28.08;20.48;;;;;;;26.29;27.41;100993.28;5038186;27;96651;-87
2021/03/31 11:00:18;;;;;;;28.48;19.63;;;;;;;26.38;27.81;100997.84;5054187;27;96942;-86
2021/03/31 11:02:43;;;;;;;26.98;17.58;;;;;;;26.36;27.41;100989.91;5041057;27;101875;-84
2021/03/31 11:05:09;;;;;;;24.73;16.58;;;;;;;26.35;27.84;100990.03;5075650;27;97298;-87
2021/03/31 11:07:35;;;;;;;31.15;19.60;;;;;;;26.16;27.60;100989.00;5074840;27;97393;-87
2021/03/31 11:10:01;;;;;;;23.65;18.38;;;;;;;26.11;27.31;100990.41;5040832;27;96961;-89
2021/03/31 11:12:27;;;;;;;26.65;17.92;;;;;;;25.90;26.89;100980.56;5057026;27;99701;-89
2021/03/31 11:14:53;;;;;;;21.52;16.63;;;;;;;25.69;27.03;100979.75;5054228;27;100074;-88
2021/03/31 11:17:23;;;;;;;21.13;16.23;;;;;;;25.77;27.42;100979.06;5036301;27;96640;-89
2021/03/31 11:20:04;;;;;;;27.42;16.92;;;;;;;25.70;27.48;100971.53;5055607;27;96918;-84
2021/03/31 11:27:57;;;;;;;24.77;17.33;;;;;;;25.46;27.51;100962.94;5074108;27;96754;-88
2021/03/31 11:30:23;;;;;;;28.35;17.60;;;;;;;25.22;27.54;100966.75;5036127;27;96975;-87
2021/03/31 11:32:49;;;;;;;24.58;16.42;;;;;;;25.15;27.94;100964.72;5033786;27;101248;-87